createdAt,value
2018-11-01T00:01:32.350Z,8.53
2018-11-01T00:04:00.946Z,10.47
2018-11-01T00:06:29.054Z,9.57
2018-11-01T00:08:57.171Z,9.10
2018-11-01T00:11:25.334Z,8.57
2018-11-01T00:13:53.429Z,9.47
2018-11-01T00:16:21.554Z,10.77
2018-11-01T00:18:49.693Z,11.57
2018-11-01T00:21:17.938Z,9.00
2018-11-01T00:23:46.035Z,8.60
2018-11-01T00:26:14.136Z,9.43
2018-11-01T00:28:42.244Z,9.77
2018-11-01T00:31:10.330Z,9.10
2018-11-01T00:33:38.430Z,9.77
2018-11-01T00:36:06.558Z,11.43
2018-11-01T00:38:34.654Z,8.03
2018-11-01T00:41:02.762Z,8.60
2018-11-01T00:43:30.867Z,9.33
2018-11-01T00:45:58.982Z,8.37
2018-11-01T00:48:27.150Z,7.40
2018-11-01T00:50:55.286Z,8.20
2018-11-01T00:53:23.391Z,8.07
2018-11-01T00:55:51.484Z,8.73
2018-11-01T00:58:19.591Z,9.40
2018-11-01T01:00:47.783Z,8.83
2018-11-01T01:03:15.899Z,8.00
2018-11-01T01:05:44.038Z,10.87
2018-11-01T01:08:12.142Z,8.47
2018-11-01T01:10:40.250Z,8.60
2018-11-01T01:13:08.370Z,9.20
2018-11-01T01:15:36.475Z,9.50
2018-11-01T01:18:04.582Z,8.97
2018-11-01T01:20:32.690Z,8.47
2018-11-01T01:23:00.770Z,8.97
2018-11-01T01:25:28.877Z,9.87
2018-11-01T01:27:56.994Z,9.57
2018-11-01T01:30:25.084Z,11.00
2018-11-01T01:32:53.202Z,11.07
2018-11-01T01:35:21.303Z,9.67
2018-11-01T01:37:49.434Z,8.77
2018-11-01T01:40:17.542Z,10.37
2018-11-01T01:42:50.875Z,9.50
2018-11-01T01:45:19.034Z,10.57
2018-11-01T01:47:47.134Z,9.97
2018-11-01T01:50:16.031Z,10.33
2018-11-01T01:52:44.807Z,10.77
2018-11-01T01:55:12.902Z,10.27
2018-11-01T01:57:41.011Z,9.73
2018-11-01T02:00:13.085Z,8.90
2018-11-01T02:02:42.909Z,9.80
2018-11-01T02:05:11.301Z,10.97
2018-11-01T02:07:39.694Z,10.83
2018-11-01T02:10:09.702Z,10.87
2018-11-01T02:12:37.983Z,9.80
2018-11-01T02:15:08.042Z,10.93
2018-11-01T02:17:36.149Z,10.23
2018-11-01T02:20:06.014Z,10.30
2018-11-01T02:22:34.158Z,10.23
2018-11-01T02:25:02.300Z,10.30
2018-11-01T02:27:35.869Z,13.40
2018-11-01T02:30:05.643Z,11.30
2018-11-01T02:32:33.753Z,12.47
2018-11-01T02:35:01.874Z,11.30
2018-11-01T02:37:30.003Z,11.33
2018-11-01T02:39:58.123Z,12.60
2018-11-01T02:42:26.231Z,13.90
2018-11-01T02:44:54.341Z,17.07
2018-11-01T02:47:22.467Z,11.87
2018-11-01T02:49:50.571Z,15.83
2018-11-01T02:52:18.686Z,13.50
2018-11-01T02:54:46.826Z,13.07
2018-11-01T02:57:14.947Z,15.43
2018-11-01T02:59:43.050Z,14.30
2018-11-01T03:02:11.189Z,14.33
2018-11-01T03:04:39.307Z,12.90
2018-11-01T03:07:07.409Z,13.97
2018-11-01T03:09:35.527Z,14.90
2018-11-01T03:12:03.627Z,12.87
2018-11-01T03:14:31.726Z,16.13
2018-11-01T03:16:59.985Z,12.57
2018-11-01T03:19:28.106Z,16.47
2018-11-01T03:21:56.218Z,13.10
2018-11-01T03:24:24.471Z,12.33
2018-11-01T03:26:52.570Z,13.93
2018-11-01T03:29:20.677Z,16.33
2018-11-01T03:31:48.771Z,12.13
2018-11-01T03:34:16.912Z,15.73
2018-11-01T03:36:44.987Z,14.67
2018-11-01T03:39:13.082Z,12.57
2018-11-01T03:41:41.170Z,15.10
2018-11-01T03:44:09.547Z,15.13
2018-11-01T03:46:38.042Z,12.60
2018-11-01T03:49:06.799Z,13.80
2018-11-01T03:51:34.899Z,14.40
2018-11-01T03:54:03.000Z,14.30
2018-11-01T03:56:31.098Z,13.47
2018-11-01T03:58:59.201Z,14.07
2018-11-01T04:01:27.303Z,14.40
2018-11-01T04:03:55.431Z,12.43
2018-11-01T04:06:23.554Z,11.87
2018-11-01T04:08:51.662Z,13.17
2018-11-01T04:11:19.752Z,12.33
2018-11-01T04:13:47.949Z,12.67
2018-11-01T04:16:15.962Z,12.80
2018-11-01T04:18:44.071Z,16.57
2018-11-01T04:21:12.186Z,14.23
2018-11-01T04:23:40.290Z,14.03
2018-11-01T04:26:08.412Z,13.13
2018-11-01T04:28:36.531Z,14.00
2018-11-01T04:31:05.254Z,18.90
2018-11-01T04:33:33.458Z,16.83
2018-11-01T04:36:01.393Z,16.90
2018-11-01T04:38:29.473Z,14.30
2018-11-01T04:40:57.551Z,16.23
2018-11-01T04:43:25.627Z,16.63
2018-11-01T04:45:53.695Z,16.53
2018-11-01T04:48:21.770Z,15.47
2018-11-01T04:50:49.887Z,16.07
2018-11-01T04:53:17.954Z,21.40
2018-11-01T04:55:46.029Z,21.23
2018-11-01T04:58:14.109Z,21.77
2018-11-01T05:00:42.174Z,16.60
2018-11-01T05:03:10.237Z,17.23
2018-11-01T05:05:38.307Z,16.73
2018-11-01T05:08:06.409Z,20.27
2018-11-01T05:10:34.489Z,20.17
2018-11-01T05:13:02.551Z,20.13
2018-11-01T05:15:30.643Z,20.27
2018-11-01T05:17:58.702Z,20.47
2018-11-01T05:20:26.786Z,20.93
2018-11-01T05:22:54.851Z,23.13
2018-11-01T05:25:22.927Z,22.30
2018-11-01T05:27:50.996Z,19.07
2018-11-01T05:30:19.066Z,17.10
2018-11-01T05:32:47.125Z,17.53
2018-11-01T05:35:15.199Z,18.07
2018-11-01T05:37:43.266Z,15.73
2018-11-01T05:40:12.026Z,14.90
2018-11-01T05:42:40.110Z,14.97
2018-11-01T05:45:08.210Z,14.53
2018-11-01T05:47:36.270Z,15.00
2018-11-01T05:50:04.503Z,15.77
2018-11-01T05:52:32.702Z,15.03
2018-11-01T05:55:00.770Z,16.63
2018-11-01T05:57:29.335Z,14.67
2018-11-01T05:59:57.496Z,14.63
2018-11-01T06:02:29.075Z,13.87
2018-11-01T06:04:57.146Z,14.93
2018-11-01T06:08:28.606Z,14.50
2018-11-01T06:10:57.000Z,14.37
2018-11-01T06:13:25.070Z,17.47
2018-11-01T06:15:53.202Z,14.57
2018-11-01T06:18:21.266Z,14.70
2018-11-01T06:20:49.436Z,14.07
2018-11-01T06:23:17.402Z,13.47
2018-11-01T06:25:45.462Z,13.17
2018-11-01T06:28:13.532Z,13.53
2018-11-01T06:30:41.584Z,13.03
2018-11-01T06:33:09.643Z,15.10
2018-11-01T06:35:40.998Z,13.73
2018-11-01T06:38:09.055Z,14.23
2018-11-01T06:40:37.127Z,13.83
2018-11-01T06:43:05.194Z,14.33
2018-11-01T06:45:33.258Z,14.70
2018-11-01T06:48:01.323Z,13.90
2018-11-01T06:50:29.375Z,12.80
2018-11-01T06:52:57.435Z,12.33
2018-11-01T06:55:25.499Z,13.47
2018-11-01T06:57:53.554Z,11.50
2018-11-01T07:00:21.614Z,12.03
2018-11-01T07:02:49.692Z,12.73
2018-11-01T07:05:17.726Z,12.47
2018-11-01T07:07:45.774Z,14.10
2018-11-01T07:10:15.039Z,11.50
2018-11-01T07:12:43.090Z,13.30
2018-11-01T07:15:12.503Z,12.80
2018-11-01T07:17:41.098Z,12.30
2018-11-01T07:20:10.286Z,11.60
2018-11-01T07:22:39.211Z,12.37
2018-11-01T07:25:08.483Z,12.23
2018-11-01T07:27:36.847Z,11.00
2018-11-01T07:30:06.819Z,12.40
2018-11-01T07:32:34.946Z,14.90
2018-11-01T07:35:02.987Z,10.90
2018-11-01T07:37:31.047Z,12.23
2018-11-01T07:39:59.225Z,10.90
2018-11-01T07:42:27.360Z,13.27
2018-11-01T07:44:55.423Z,13.03
2018-11-01T07:47:23.502Z,13.37
2018-11-01T07:49:51.575Z,12.43
2018-11-01T07:52:19.638Z,11.27
2018-11-01T07:54:47.714Z,12.93
2018-11-01T07:57:15.867Z,12.40
2018-11-01T07:59:43.998Z,12.67
2018-11-01T08:02:12.183Z,13.93
2018-11-01T08:04:40.245Z,13.00
2018-11-01T08:07:08.294Z,10.67
2018-11-01T08:09:36.363Z,10.60
2018-11-01T08:12:04.587Z,11.53
2018-11-01T08:14:32.667Z,12.70
2018-11-01T08:17:00.813Z,11.70
2018-11-01T08:19:28.908Z,11.03
2018-11-01T08:21:56.975Z,9.73
2018-11-01T08:24:25.042Z,10.50
2018-11-01T08:26:53.115Z,10.73
2018-11-01T08:29:21.285Z,10.87
2018-11-01T08:31:49.342Z,10.27
2018-11-01T08:34:17.408Z,9.23
2018-11-01T08:36:45.496Z,9.50
2018-11-01T08:39:13.828Z,10.97
2018-11-01T08:41:41.923Z,9.30
2018-11-01T08:44:09.990Z,10.77
2018-11-01T08:46:38.047Z,10.30
2018-11-01T08:49:06.386Z,9.77
2018-11-01T08:51:34.511Z,9.83
2018-11-01T08:54:02.578Z,14.83
2018-11-01T08:56:30.646Z,10.53
2018-11-01T08:58:58.699Z,9.10
2018-11-01T09:01:26.746Z,8.37
2018-11-01T09:03:54.836Z,9.30
2018-11-01T09:06:22.867Z,8.70
2018-11-01T09:08:50.927Z,8.20
2018-11-01T09:11:19.011Z,9.10
2018-11-01T09:13:47.076Z,8.97
2018-11-01T09:16:15.136Z,9.37
2018-11-01T09:18:43.241Z,8.43
2018-11-01T09:21:11.319Z,7.67
2018-11-01T09:23:39.544Z,7.70
2018-11-01T09:26:07.619Z,7.90
2018-11-01T09:28:35.687Z,7.33
2018-11-01T09:31:03.765Z,7.83
2018-11-01T09:33:31.806Z,8.20
2018-11-01T09:35:59.861Z,8.23
2018-11-01T09:38:27.907Z,7.50
2018-11-01T09:40:55.959Z,7.17
2018-11-01T09:43:24.035Z,7.50
2018-11-01T09:45:52.169Z,7.03
2018-11-01T09:48:20.163Z,8.50
2018-11-01T09:50:48.206Z,7.70
2018-11-01T09:53:16.257Z,6.73
2018-11-01T09:55:44.393Z,8.07
2018-11-01T09:58:12.403Z,10.10
2018-11-01T10:00:40.459Z,10.60
2018-11-01T10:03:08.506Z,9.90
2018-11-01T10:05:36.567Z,10.30
2018-11-01T10:08:04.943Z,11.03
2018-11-01T10:10:33.002Z,12.10
2018-11-01T10:13:01.051Z,11.43
2018-11-01T10:15:29.287Z,10.97
2018-11-01T10:17:57.598Z,10.43
2018-11-01T10:20:25.250Z,9.53
2018-11-01T10:22:53.329Z,9.60
2018-11-01T10:25:21.414Z,9.23
2018-11-01T10:27:49.536Z,9.80
2018-11-01T10:30:19.079Z,9.47
2018-11-01T10:32:47.160Z,9.03
2018-11-01T10:35:16.248Z,9.67
2018-11-01T10:37:44.309Z,9.83
2018-11-01T10:40:14.126Z,18.13
2018-11-01T10:42:42.199Z,7.97
2018-11-01T10:45:10.598Z,7.90
2018-11-01T10:47:38.966Z,7.60
2018-11-01T10:50:10.411Z,8.43
2018-11-01T10:52:38.995Z,7.63
2018-11-01T10:55:07.366Z,8.07
2018-11-01T10:57:35.463Z,7.30
2018-11-01T11:00:03.667Z,7.07
2018-11-01T11:02:31.719Z,7.13
2018-11-01T11:04:59.786Z,7.57
2018-11-01T11:07:27.843Z,6.47
2018-11-01T11:09:55.942Z,7.20
2018-11-01T11:12:24.010Z,6.90
2018-11-01T11:14:52.090Z,6.03
2018-11-01T11:17:20.197Z,6.07
2018-11-01T11:19:50.488Z,7.87
2018-11-01T11:22:18.392Z,6.37
2018-11-01T11:24:46.572Z,6.57
2018-11-01T11:27:14.726Z,5.70
2018-11-01T11:29:42.912Z,6.83
2018-11-01T11:32:11.094Z,5.23
2018-11-01T11:34:39.268Z,4.80
2018-11-01T11:37:07.326Z,5.13
2018-11-01T11:39:35.733Z,4.87
2018-11-01T11:42:03.799Z,5.23
2018-11-01T11:44:31.878Z,6.10
2018-11-01T11:46:59.959Z,4.87
2018-11-01T11:49:28.038Z,4.47
2018-11-01T11:51:56.190Z,4.60
2018-11-01T11:54:24.292Z,4.50
2018-11-01T11:56:52.385Z,4.43
2018-11-01T11:59:20.410Z,4.57
2018-11-01T12:01:48.487Z,9.00
2018-11-01T12:04:16.635Z,4.47
2018-11-01T12:06:44.704Z,5.90
2018-11-01T12:09:12.798Z,4.03
2018-11-01T12:11:40.875Z,4.27
2018-11-01T12:14:08.970Z,5.23
2018-11-01T12:16:37.087Z,4.13
2018-11-01T12:19:05.283Z,3.67
2018-11-01T12:21:33.395Z,2.87
2018-11-01T12:24:01.466Z,4.77
2018-11-01T12:26:29.531Z,4.40
2018-11-01T12:28:57.707Z,3.80
2018-11-01T12:31:25.727Z,3.50
2018-11-01T12:33:53.902Z,5.90
2018-11-01T12:36:21.964Z,3.17
2018-11-01T12:38:50.053Z,2.60
2018-11-01T12:41:18.234Z,2.97
2018-11-01T12:43:46.295Z,2.03
2018-11-01T12:46:14.432Z,3.67
2018-11-01T12:48:42.483Z,2.00
2018-11-01T12:51:10.546Z,2.93
2018-11-01T12:53:38.614Z,1.97
2018-11-01T12:56:06.775Z,2.00
2018-11-01T12:58:34.811Z,2.30
2018-11-01T13:01:02.891Z,4.20
2018-11-01T13:03:30.955Z,4.67
2018-11-01T13:05:59.042Z,1.80
2018-11-01T13:08:27.114Z,5.63
2018-11-01T13:10:55.167Z,2.47
2018-11-01T13:13:23.411Z,1.90
2018-11-01T13:15:51.531Z,3.60
2018-11-01T13:18:19.733Z,3.00
2018-11-01T13:20:47.805Z,2.03
2018-11-01T13:23:15.854Z,2.23
2018-11-01T13:25:43.928Z,4.60
2018-11-01T13:28:11.988Z,2.17
2018-11-01T13:30:40.039Z,2.80
2018-11-01T13:33:08.098Z,3.63
2018-11-01T13:35:36.286Z,2.87
2018-11-01T13:38:04.535Z,4.73
2018-11-01T13:40:33.053Z,2.47
2018-11-01T13:43:00.727Z,2.53
2018-11-01T13:45:28.983Z,4.60
2018-11-01T13:47:57.147Z,2.27
2018-11-01T13:50:25.096Z,4.00
2018-11-01T13:52:53.248Z,2.30
2018-11-01T13:55:21.359Z,3.17
2018-11-01T13:57:49.426Z,2.40
2018-11-01T14:00:17.497Z,2.87
2018-11-01T14:02:45.566Z,2.03
2018-11-01T14:05:14.962Z,2.93
2018-11-01T14:07:43.554Z,2.60
2018-11-01T14:10:12.762Z,2.47
2018-11-01T14:12:40.883Z,4.97
2018-11-01T14:15:10.109Z,3.70
2018-11-01T14:17:37.903Z,3.50
2018-11-01T14:20:07.462Z,3.57
2018-11-01T14:22:35.507Z,2.30
2018-11-01T14:25:03.591Z,2.97
2018-11-01T14:27:31.646Z,2.53
2018-11-01T14:29:59.735Z,4.30
2018-11-01T14:32:27.815Z,5.00
2018-11-01T14:34:55.866Z,3.23
2018-11-01T14:37:23.984Z,3.47
2018-11-01T14:39:52.007Z,3.10
2018-11-01T14:42:20.051Z,2.30
2018-11-01T14:44:48.115Z,3.47
2018-11-01T14:47:16.199Z,3.63
2018-11-01T14:49:44.313Z,3.80
2018-11-01T14:52:12.708Z,2.93
2018-11-01T14:54:41.485Z,2.70
2018-11-01T14:57:09.684Z,3.47
2018-11-01T14:59:37.943Z,3.83
2018-11-01T15:02:04.792Z,2.93
2018-11-01T15:04:32.937Z,2.77
2018-11-01T15:07:01.011Z,2.53
2018-11-01T15:09:29.183Z,3.87
2018-11-01T15:11:57.255Z,2.40
2018-11-01T15:14:25.402Z,2.47
2018-11-01T15:16:53.451Z,2.37
2018-11-01T15:19:21.825Z,2.83
2018-11-01T15:21:49.800Z,2.70
2018-11-01T15:24:17.859Z,2.47
2018-11-01T15:26:45.926Z,3.23
2018-11-01T15:29:13.974Z,2.57
2018-11-01T15:31:42.014Z,3.57
2018-11-01T15:34:10.247Z,5.03
2018-11-01T15:36:38.109Z,2.30
2018-11-01T15:39:08.215Z,2.50
2018-11-01T15:41:36.571Z,3.87
2018-11-01T15:44:04.739Z,2.50
2018-11-01T15:46:32.914Z,2.40
2018-11-01T15:49:00.980Z,2.60
2018-11-01T15:51:29.033Z,3.60
2018-11-01T15:53:57.087Z,3.83
2018-11-01T15:56:25.197Z,5.20
2018-11-01T15:58:53.190Z,3.73
2018-11-01T16:01:21.250Z,3.10
2018-11-01T16:03:49.337Z,3.10
2018-11-01T16:06:17.354Z,4.13
2018-11-01T16:08:45.410Z,3.10
2018-11-01T16:11:13.474Z,3.70
2018-11-01T16:13:41.547Z,4.40
2018-11-01T16:16:09.694Z,4.00
2018-11-01T16:18:37.718Z,10.83
2018-11-01T16:21:05.858Z,5.77
2018-11-01T16:23:33.933Z,8.70
2018-11-01T16:26:02.011Z,5.70
2018-11-01T16:28:30.103Z,7.37
2018-11-01T16:30:58.219Z,7.10
2018-11-01T16:33:26.258Z,10.83
2018-11-01T16:35:54.359Z,6.97
2018-11-01T16:38:22.429Z,5.13
2018-11-01T16:40:50.490Z,5.23
2018-11-01T16:43:18.569Z,8.83
2018-11-01T16:45:46.643Z,5.23
2018-11-01T16:48:14.750Z,5.83
2018-11-01T16:50:42.967Z,8.47
2018-11-01T16:53:10.995Z,8.83
2018-11-01T16:55:39.138Z,6.53
2018-11-01T16:58:07.223Z,5.90
2018-11-01T17:00:35.472Z,6.47
2018-11-01T17:03:03.378Z,7.20
2018-11-01T17:05:31.438Z,6.30
2018-11-01T17:07:59.482Z,10.77
2018-11-01T17:10:27.543Z,7.60
2018-11-01T17:12:55.618Z,15.83
2018-11-01T17:15:23.714Z,9.87
2018-11-01T17:17:52.578Z,12.30
2018-11-01T17:20:20.642Z,10.97
2018-11-01T17:22:48.711Z,9.33
2018-11-01T17:25:16.786Z,8.70
2018-11-01T17:27:44.838Z,7.90
2018-11-01T17:30:12.954Z,31.17
2018-11-01T17:32:46.127Z,9.13
2018-11-01T17:35:14.476Z,9.93
2018-11-01T17:37:42.606Z,7.80
2018-11-01T17:40:10.976Z,9.10
2018-11-01T17:42:39.010Z,9.47
2018-11-01T17:45:07.716Z,10.40
2018-11-01T17:47:35.835Z,9.53
2018-11-01T17:50:05.415Z,12.00
2018-11-01T17:52:33.482Z,9.30
2018-11-01T17:55:01.566Z,11.80
2018-11-01T17:57:29.658Z,11.20
2018-11-01T17:59:57.739Z,9.97
2018-11-01T18:02:25.895Z,10.40
2018-11-01T18:04:53.842Z,9.77
2018-11-01T18:07:21.891Z,9.20
2018-11-01T18:09:49.975Z,9.93
2018-11-01T18:12:17.998Z,9.80
2018-11-01T18:14:46.054Z,11.73
2018-11-01T18:17:14.107Z,9.73
2018-11-01T18:19:42.199Z,28.57
2018-11-01T18:22:10.299Z,23.00
2018-11-01T18:24:38.365Z,14.60
2018-11-01T18:27:06.570Z,12.67
2018-11-01T18:29:34.618Z,12.23
2018-11-01T18:32:02.844Z,11.77
2018-11-01T18:34:30.897Z,11.00
2018-11-01T18:36:58.936Z,11.30
2018-11-01T18:39:27.133Z,12.30
2018-11-01T18:41:55.103Z,10.97
2018-11-01T18:44:23.210Z,12.33
2018-11-01T18:46:51.290Z,11.33
2018-11-01T18:49:19.350Z,11.03
2018-11-01T18:51:47.459Z,11.67
2018-11-01T18:54:15.611Z,14.43
2018-11-01T18:56:43.627Z,10.70
2018-11-01T18:59:11.696Z,10.83
2018-11-01T19:01:39.791Z,10.17
2018-11-01T19:04:07.870Z,10.45
2018-11-01T19:06:35.950Z,9.67
2018-11-01T19:09:05.899Z,9.53
2018-11-01T19:11:33.975Z,8.97
2018-11-01T19:14:02.163Z,8.20
2018-11-01T19:16:30.143Z,8.77
2018-11-01T19:18:58.207Z,8.17
2018-11-01T19:21:26.322Z,7.73
2018-11-01T19:23:54.409Z,7.43
2018-11-01T19:26:22.459Z,7.73
2018-11-01T19:28:50.525Z,8.33
2018-11-01T19:31:18.638Z,7.17
2018-11-01T19:33:46.737Z,9.27
2018-11-01T19:36:14.791Z,8.33
2018-11-01T19:38:42.843Z,6.00
2018-11-01T19:41:10.911Z,6.50
2018-11-01T19:43:38.955Z,6.40
2018-11-01T19:46:07.210Z,4.83
2018-11-01T19:48:35.274Z,4.70
2018-11-01T19:51:03.481Z,5.50
2018-11-01T19:53:31.563Z,6.03
2018-11-01T19:55:59.663Z,5.53
2018-11-01T19:58:27.730Z,5.97
2018-11-01T20:00:55.815Z,5.37
2018-11-01T20:03:23.855Z,3.73
2018-11-01T20:05:51.918Z,4.60
2018-11-01T20:08:20.089Z,3.47
2018-11-01T20:10:48.054Z,5.30
2018-11-01T20:13:16.122Z,4.30
2018-11-01T20:15:44.166Z,3.93
2018-11-01T20:18:12.220Z,5.30
2018-11-01T20:20:40.301Z,4.33
2018-11-01T20:23:08.366Z,6.53
2018-11-01T20:25:36.477Z,5.33
2018-11-01T20:28:04.675Z,8.15
2018-11-01T20:30:32.716Z,5.20
2018-11-01T20:33:00.793Z,5.03
2018-11-01T20:35:28.858Z,8.37
2018-11-01T20:37:56.977Z,4.90
2018-11-01T20:40:24.967Z,4.50
2018-11-01T20:42:53.011Z,4.90
2018-11-01T20:45:21.060Z,6.80
2018-11-01T20:47:49.127Z,5.43
2018-11-01T20:50:17.218Z,5.30
2018-11-01T20:52:45.221Z,4.50
2018-11-01T20:55:13.266Z,4.87
2018-11-01T20:57:41.394Z,5.70
2018-11-01T21:00:11.023Z,5.20
2018-11-01T21:02:39.172Z,5.20
2018-11-01T21:05:07.411Z,6.30
2018-11-01T21:07:35.439Z,5.50
2018-11-01T21:10:03.836Z,6.67
2018-11-01T21:12:31.871Z,5.50
2018-11-01T21:15:00.168Z,13.37
2018-11-01T21:17:28.203Z,4.93
2018-11-01T21:19:56.238Z,6.43
2018-11-01T21:22:24.287Z,5.20
2018-11-01T21:24:52.325Z,4.57
2018-11-01T21:27:20.446Z,5.27
2018-11-01T21:29:48.492Z,4.40
2018-11-01T21:32:16.538Z,5.43
2018-11-01T21:34:44.570Z,3.93
2018-11-01T21:37:12.618Z,4.60
2018-11-01T21:39:40.679Z,4.10
2018-11-01T21:42:08.782Z,5.10
2018-11-01T21:44:36.921Z,3.70
2018-11-01T21:47:05.475Z,3.57
2018-11-01T21:49:33.509Z,4.27
2018-11-01T21:52:01.558Z,4.60
2018-11-01T21:54:29.606Z,5.53
2018-11-01T21:56:57.650Z,3.80
2018-11-01T21:59:25.695Z,3.60
2018-11-01T22:01:53.753Z,4.40
2018-11-01T22:04:21.787Z,4.10
2018-11-01T22:06:49.834Z,4.70
2018-11-01T22:09:17.891Z,3.77
2018-11-01T22:11:45.965Z,4.27
2018-11-01T22:14:14.025Z,4.00
2018-11-01T22:16:42.126Z,3.70
2018-11-01T22:19:10.435Z,4.53
2018-11-01T22:21:38.505Z,6.20
2018-11-01T22:24:06.599Z,5.57
2018-11-01T22:26:34.960Z,4.47
2018-11-01T22:29:03.031Z,5.10
2018-11-01T22:31:31.230Z,4.80
2018-11-01T22:33:59.287Z,4.57
2018-11-01T22:36:27.342Z,4.30
2018-11-01T22:38:55.420Z,4.07
2018-11-01T22:41:23.458Z,4.83
2018-11-01T22:43:51.667Z,4.40
2018-11-01T22:46:19.711Z,4.50
2018-11-01T22:48:47.780Z,3.90
2018-11-01T22:51:15.843Z,4.23
2018-11-01T22:53:43.932Z,3.80
2018-11-01T22:56:11.971Z,4.23
2018-11-01T22:58:40.027Z,3.90
2018-11-01T23:01:08.087Z,4.17
2018-11-01T23:03:36.194Z,4.27
2018-11-01T23:06:04.318Z,5.17
2018-11-01T23:08:32.362Z,3.47
2018-11-01T23:11:00.427Z,4.47
2018-11-01T23:13:28.476Z,6.27
2018-11-01T23:15:56.543Z,5.03
2018-11-01T23:18:24.604Z,4.77
2018-11-01T23:20:52.649Z,4.77
2018-11-01T23:23:20.708Z,3.63
2018-11-01T23:25:48.767Z,3.90
2018-11-01T23:28:16.836Z,4.13
2018-11-01T23:30:44.979Z,3.67
2018-11-01T23:33:13.051Z,4.50
2018-11-01T23:35:41.127Z,2.80
2018-11-01T23:38:14.641Z,3.80
2018-11-01T23:40:48.102Z,2.40
2018-11-01T23:43:21.470Z,2.20
2018-11-01T23:45:54.966Z,2.23
2018-11-01T23:48:22.318Z,2.97
2018-11-01T23:51:12.211Z,2.17
2018-11-01T23:53:42.532Z,2.57
2018-11-01T23:56:10.594Z,1.90
2018-11-01T23:58:38.665Z,1.80
